Noti, Oregon
Current Conditions -  °F | °C
As of 12:54 AM on Saturday 29 Nov 2014 (Local Time) from KEUG Reporting Station
Light Rain Light Rain  
Wind Chill:   Ceiling: 4600
Heat Index:   Visibility: 10mi
Dew Point:   Wind: 6mph
Humidity: 86%   Direction: 220°SW
Pressure: 29.7"   Gusts: NA
Location:  44.06°N, 123.45°W
Report Text: KEUG 290854Z AUTO 22005KT 10SM -RA FEW036 OVC046 08/06 A2970 RMK AO2 RAB42 SLP057 P0000 60000 T00780056 51021
Loading
Personal Weather Stations






























Interactive Weather Map New forecast layout! Learn more

10-Day Weather Forecast

Advertisements
Track Severe Weather on mobile